sensor_id;sensor_type;location;lat;lon;timestamp;P1;durP1;ratioP1;P2;durP2;ratioP2
79130;SDS011;72396;45.194;9.142;2024-01-07T00:00:15;10.93;;;7.05;;
79130;SDS011;72396;45.194;9.142;2024-01-07T00:02:41;12.43;;;7.07;;
79130;SDS011;72396;45.194;9.142;2024-01-07T00:05:07;10.00;;;6.57;;
79130;SDS011;72396;45.194;9.142;2024-01-07T00:07:32;9.13;;;6.28;;
79130;SDS011;72396;45.194;9.142;2024-01-07T00:09:57;10.32;;;6.90;;
79130;SDS011;72396;45.194;9.142;2024-01-07T00:12:23;11.45;;;6.53;;
79130;SDS011;72396;45.194;9.142;2024-01-07T00:14:49;9.65;;;6.43;;
79130;SDS011;72396;45.194;9.142;2024-01-07T00:17:15;9.70;;;6.13;;
79130;SDS011;72396;45.194;9.142;2024-01-07T00:19:40;10.18;;;6.63;;
79130;SDS011;72396;45.194;9.142;2024-01-07T00:22:06;9.70;;;6.30;;
79130;SDS011;72396;45.194;9.142;2024-01-07T00:24:32;9.38;;;6.38;;
79130;SDS011;72396;45.194;9.142;2024-01-07T00:26:57;8.63;;;5.95;;
79130;SDS011;72396;45.194;9.142;2024-01-07T00:29:22;8.27;;;6.30;;
79130;SDS011;72396;45.194;9.142;2024-01-07T00:31:48;9.25;;;6.35;;
79130;SDS011;72396;45.194;9.142;2024-01-07T00:34:13;11.20;;;6.72;;
79130;SDS011;72396;45.194;9.142;2024-01-07T00:36:38;10.10;;;6.22;;
79130;SDS011;72396;45.194;9.142;2024-01-07T00:39:04;9.70;;;6.05;;
79130;SDS011;72396;45.194;9.142;2024-01-07T00:41:29;10.20;;;6.35;;
79130;SDS011;72396;45.194;9.142;2024-01-07T00:43:57;9.75;;;6.45;;
79130;SDS011;72396;45.194;9.142;2024-01-07T00:46:23;10.60;;;6.70;;
79130;SDS011;72396;45.194;9.142;2024-01-07T00:48:48;10.80;;;6.30;;
79130;SDS011;72396;45.194;9.142;2024-01-07T00:51:13;11.18;;;7.40;;
79130;SDS011;72396;45.194;9.142;2024-01-07T00:53:39;9.85;;;6.55;;
79130;SDS011;72396;45.194;9.142;2024-01-07T00:56:04;12.55;;;7.65;;
79130;SDS011;72396;45.194;9.142;2024-01-07T00:58:30;9.23;;;6.07;;
79130;SDS011;72396;45.194;9.142;2024-01-07T01:00:56;9.05;;;6.25;;
79130;SDS011;72396;45.194;9.142;2024-01-07T01:03:21;10.25;;;6.75;;
79130;SDS011;72396;45.194;9.142;2024-01-07T01:05:46;10.95;;;6.88;;
79130;SDS011;72396;45.194;9.142;2024-01-07T01:08:12;8.40;;;5.88;;
79130;SDS011;72396;45.194;9.142;2024-01-07T01:10:37;9.85;;;6.35;;
79130;SDS011;72396;45.194;9.142;2024-01-07T01:13:03;9.10;;;6.30;;
79130;SDS011;72396;45.194;9.142;2024-01-07T01:15:28;9.25;;;6.55;;
79130;SDS011;72396;45.194;9.142;2024-01-07T01:17:53;10.52;;;6.75;;
79130;SDS011;72396;45.194;9.142;2024-01-07T01:20:19;9.55;;;6.85;;
79130;SDS011;72396;45.194;9.142;2024-01-07T01:22:44;12.25;;;7.32;;
79130;SDS011;72396;45.194;9.142;2024-01-07T01:25:10;10.45;;;6.10;;
79130;SDS011;72396;45.194;9.142;2024-01-07T01:27:35;10.65;;;7.00;;
79130;SDS011;72396;45.194;9.142;2024-01-07T01:30:00;10.25;;;7.20;;
79130;SDS011;72396;45.194;9.142;2024-01-07T01:32:26;12.70;;;7.40;;
79130;SDS011;72396;45.194;9.142;2024-01-07T01:34:51;11.75;;;6.95;;
79130;SDS011;72396;45.194;9.142;2024-01-07T01:37:16;10.75;;;6.65;;
79130;SDS011;72396;45.194;9.142;2024-01-07T01:39:42;10.00;;;7.00;;
79130;SDS011;72396;45.194;9.142;2024-01-07T01:42:07;12.00;;;7.20;;
79130;SDS011;72396;45.194;9.142;2024-01-07T01:44:33;9.75;;;6.68;;
79130;SDS011;72396;45.194;9.142;2024-01-07T01:46:59;10.20;;;6.93;;
79130;SDS011;72396;45.194;9.142;2024-01-07T01:49:25;11.77;;;6.90;;
79130;SDS011;72396;45.194;9.142;2024-01-07T01:51:52;9.77;;;7.00;;
79130;SDS011;72396;45.194;9.142;2024-01-07T01:54:18;12.55;;;7.00;;
79130;SDS011;72396;45.194;9.142;2024-01-07T01:56:44;10.07;;;6.70;;
79130;SDS011;72396;45.194;9.142;2024-01-07T01:59:09;11.32;;;6.60;;
79130;SDS011;72396;45.194;9.142;2024-01-07T02:01:36;11.02;;;7.00;;
79130;SDS011;72396;45.194;9.142;2024-01-07T02:04:01;9.60;;;6.82;;
79130;SDS011;72396;45.194;9.142;2024-01-07T02:06:27;10.27;;;6.53;;
79130;SDS011;72396;45.194;9.142;2024-01-07T02:08:52;9.15;;;6.72;;
79130;SDS011;72396;45.194;9.142;2024-01-07T02:11:18;10.18;;;6.85;;
79130;SDS011;72396;45.194;9.142;2024-01-07T02:13:44;12.18;;;7.03;;
79130;SDS011;72396;45.194;9.142;2024-01-07T02:16:10;10.30;;;7.38;;
79130;SDS011;72396;45.194;9.142;2024-01-07T02:18:36;9.95;;;6.75;;
79130;SDS011;72396;45.194;9.142;2024-01-07T02:21:03;10.20;;;6.40;;
79130;SDS011;72396;45.194;9.142;2024-01-07T02:23:28;10.90;;;6.63;;
79130;SDS011;72396;45.194;9.142;2024-01-07T02:25:54;11.20;;;7.00;;
79130;SDS011;72396;45.194;9.142;2024-01-07T02:28:19;8.00;;;5.63;;
79130;SDS011;72396;45.194;9.142;2024-01-07T02:30:44;11.02;;;6.47;;
79130;SDS011;72396;45.194;9.142;2024-01-07T02:33:10;11.15;;;7.13;;
79130;SDS011;72396;45.194;9.142;2024-01-07T02:35:35;10.25;;;7.30;;
79130;SDS011;72396;45.194;9.142;2024-01-07T02:38:00;11.15;;;7.53;;
79130;SDS011;72396;45.194;9.142;2024-01-07T02:40:26;11.38;;;7.00;;
79130;SDS011;72396;45.194;9.142;2024-01-07T02:42:51;12.38;;;7.25;;
79130;SDS011;72396;45.194;9.142;2024-01-07T02:45:16;12.40;;;7.30;;
79130;SDS011;72396;45.194;9.142;2024-01-07T02:47:42;11.02;;;7.00;;
79130;SDS011;72396;45.194;9.142;2024-01-07T02:50:07;11.55;;;7.07;;
79130;SDS011;72396;45.194;9.142;2024-01-07T02:52:33;11.43;;;6.90;;
79130;SDS011;72396;45.194;9.142;2024-01-07T02:54:58;13.52;;;8.05;;
79130;SDS011;72396;45.194;9.142;2024-01-07T02:57:24;11.35;;;7.68;;
79130;SDS011;72396;45.194;9.142;2024-01-07T02:59:49;12.02;;;7.53;;
79130;SDS011;72396;45.194;9.142;2024-01-07T03:02:14;9.73;;;6.95;;
79130;SDS011;72396;45.194;9.142;2024-01-07T03:04:40;10.93;;;7.88;;
79130;SDS011;72396;45.194;9.142;2024-01-07T03:07:05;12.68;;;8.07;;
79130;SDS011;72396;45.194;9.142;2024-01-07T03:09:30;11.48;;;7.47;;
79130;SDS011;72396;45.194;9.142;2024-01-07T03:11:56;10.40;;;7.15;;
79130;SDS011;72396;45.194;9.142;2024-01-07T03:14:21;11.82;;;7.57;;
79130;SDS011;72396;45.194;9.142;2024-01-07T03:16:48;13.93;;;8.00;;
79130;SDS011;72396;45.194;9.142;2024-01-07T03:19:13;14.80;;;8.07;;
79130;SDS011;72396;45.194;9.142;2024-01-07T03:21:39;13.48;;;8.18;;
79130;SDS011;72396;45.194;9.142;2024-01-07T03:24:04;13.32;;;8.50;;
79130;SDS011;72396;45.194;9.142;2024-01-07T03:26:30;12.32;;;8.07;;
79130;SDS011;72396;45.194;9.142;2024-01-07T03:28:58;14.25;;;7.80;;
79130;SDS011;72396;45.194;9.142;2024-01-07T03:31:27;12.05;;;8.10;;
79130;SDS011;72396;45.194;9.142;2024-01-07T03:33:53;12.57;;;8.15;;
79130;SDS011;72396;45.194;9.142;2024-01-07T03:36:18;12.02;;;7.43;;
79130;SDS011;72396;45.194;9.142;2024-01-07T03:38:44;11.75;;;8.20;;
79130;SDS011;72396;45.194;9.142;2024-01-07T03:41:15;11.07;;;7.35;;
79130;SDS011;72396;45.194;9.142;2024-01-07T03:43:44;12.60;;;8.02;;
79130;SDS011;72396;45.194;9.142;2024-01-07T03:46:11;13.18;;;7.57;;
79130;SDS011;72396;45.194;9.142;2024-01-07T03:48:36;12.95;;;8.52;;
79130;SDS011;72396;45.194;9.142;2024-01-07T03:51:01;13.23;;;8.20;;
79130;SDS011;72396;45.194;9.142;2024-01-07T03:53:27;13.90;;;8.38;;
79130;SDS011;72396;45.194;9.142;2024-01-07T03:55:52;13.27;;;7.60;;
79130;SDS011;72396;45.194;9.142;2024-01-07T03:58:17;12.43;;;7.38;;
79130;SDS011;72396;45.194;9.142;2024-01-07T04:00:43;12.13;;;7.75;;
79130;SDS011;72396;45.194;9.142;2024-01-07T04:03:08;12.90;;;8.32;;
79130;SDS011;72396;45.194;9.142;2024-01-07T04:05:33;12.93;;;7.90;;
79130;SDS011;72396;45.194;9.142;2024-01-07T04:08:02;12.43;;;7.90;;
79130;SDS011;72396;45.194;9.142;2024-01-07T04:10:27;12.43;;;8.50;;
79130;SDS011;72396;45.194;9.142;2024-01-07T04:12:53;13.07;;;7.90;;
79130;SDS011;72396;45.194;9.142;2024-01-07T04:15:18;13.73;;;8.57;;
79130;SDS011;72396;45.194;9.142;2024-01-07T04:17:43;12.60;;;7.93;;
79130;SDS011;72396;45.194;9.142;2024-01-07T04:20:12;12.82;;;8.55;;
79130;SDS011;72396;45.194;9.142;2024-01-07T04:22:38;13.93;;;7.93;;
79130;SDS011;72396;45.194;9.142;2024-01-07T04:25:04;13.60;;;7.93;;
79130;SDS011;72396;45.194;9.142;2024-01-07T04:27:33;10.70;;;7.00;;
79130;SDS011;72396;45.194;9.142;2024-01-07T04:30:01;12.05;;;8.07;;
79130;SDS011;72396;45.194;9.142;2024-01-07T04:32:27;11.40;;;7.50;;
79130;SDS011;72396;45.194;9.142;2024-01-07T04:34:52;10.80;;;6.75;;
79130;SDS011;72396;45.194;9.142;2024-01-07T04:37:17;10.70;;;6.57;;
79130;SDS011;72396;45.194;9.142;2024-01-07T04:39:43;9.32;;;5.93;;
79130;SDS011;72396;45.194;9.142;2024-01-07T04:42:08;8.15;;;4.97;;
79130;SDS011;72396;45.194;9.142;2024-01-07T04:44:33;10.85;;;5.85;;
79130;SDS011;72396;45.194;9.142;2024-01-07T04:46:59;7.88;;;4.97;;
79130;SDS011;72396;45.194;9.142;2024-01-07T04:49:24;8.68;;;4.82;;
79130;SDS011;72396;45.194;9.142;2024-01-07T04:51:49;6.53;;;4.10;;
79130;SDS011;72396;45.194;9.142;2024-01-07T04:54:15;7.72;;;4.75;;
79130;SDS011;72396;45.194;9.142;2024-01-07T04:56:40;5.55;;;3.78;;
79130;SDS011;72396;45.194;9.142;2024-01-07T04:59:05;6.55;;;3.60;;
79130;SDS011;72396;45.194;9.142;2024-01-07T05:01:33;5.68;;;3.33;;
79130;SDS011;72396;45.194;9.142;2024-01-07T05:04:00;6.85;;;3.17;;
79130;SDS011;72396;45.194;9.142;2024-01-07T05:06:25;5.45;;;3.20;;
79130;SDS011;72396;45.194;9.142;2024-01-07T05:08:50;5.88;;;3.17;;
79130;SDS011;72396;45.194;9.142;2024-01-07T05:11:16;5.68;;;3.05;;
79130;SDS011;72396;45.194;9.142;2024-01-07T05:13:42;5.00;;;2.67;;
79130;SDS011;72396;45.194;9.142;2024-01-07T05:16:07;4.75;;;2.22;;
79130;SDS011;72396;45.194;9.142;2024-01-07T05:18:33;3.88;;;2.05;;
79130;SDS011;72396;45.194;9.142;2024-01-07T05:20:58;3.88;;;2.10;;
79130;SDS011;72396;45.194;9.142;2024-01-07T05:23:23;4.35;;;2.30;;
79130;SDS011;72396;45.194;9.142;2024-01-07T05:25:49;4.07;;;1.70;;
79130;SDS011;72396;45.194;9.142;2024-01-07T05:28:14;4.18;;;1.75;;
79130;SDS011;72396;45.194;9.142;2024-01-07T05:30:44;4.28;;;2.13;;
79130;SDS011;72396;45.194;9.142;2024-01-07T05:33:09;4.80;;;2.00;;
79130;SDS011;72396;45.194;9.142;2024-01-07T05:35:35;4.20;;;1.80;;
79130;SDS011;72396;45.194;9.142;2024-01-07T05:38:01;4.32;;;2.13;;
79130;SDS011;72396;45.194;9.142;2024-01-07T05:40:26;3.13;;;1.63;;
79130;SDS011;72396;45.194;9.142;2024-01-07T05:42:51;3.90;;;1.92;;
79130;SDS011;72396;45.194;9.142;2024-01-07T05:45:17;3.05;;;1.63;;
79130;SDS011;72396;45.194;9.142;2024-01-07T05:47:42;3.17;;;1.50;;
79130;SDS011;72396;45.194;9.142;2024-01-07T05:50:08;3.72;;;2.00;;
79130;SDS011;72396;45.194;9.142;2024-01-07T05:52:33;3.40;;;1.73;;
79130;SDS011;72396;45.194;9.142;2024-01-07T05:54:59;6.28;;;2.33;;
79130;SDS011;72396;45.194;9.142;2024-01-07T05:57:24;3.80;;;2.03;;
79130;SDS011;72396;45.194;9.142;2024-01-07T05:59:49;3.42;;;1.80;;
79130;SDS011;72396;45.194;9.142;2024-01-07T06:02:15;3.63;;;1.60;;
79130;SDS011;72396;45.194;9.142;2024-01-07T06:04:42;3.90;;;1.88;;
79130;SDS011;72396;45.194;9.142;2024-01-07T06:07:07;4.30;;;2.15;;
79130;SDS011;72396;45.194;9.142;2024-01-07T06:09:33;3.33;;;2.00;;
79130;SDS011;72396;45.194;9.142;2024-01-07T06:11:58;4.20;;;2.25;;
79130;SDS011;72396;45.194;9.142;2024-01-07T06:14:23;4.05;;;2.08;;
79130;SDS011;72396;45.194;9.142;2024-01-07T06:16:49;4.70;;;2.60;;
79130;SDS011;72396;45.194;9.142;2024-01-07T06:19:16;4.30;;;2.50;;
79130;SDS011;72396;45.194;9.142;2024-01-07T06:21:42;5.55;;;2.75;;
79130;SDS011;72396;45.194;9.142;2024-01-07T06:24:07;4.97;;;2.40;;
79130;SDS011;72396;45.194;9.142;2024-01-07T06:26:33;4.80;;;2.85;;
79130;SDS011;72396;45.194;9.142;2024-01-07T06:28:58;4.82;;;2.55;;
79130;SDS011;72396;45.194;9.142;2024-01-07T06:31:24;4.95;;;2.80;;
79130;SDS011;72396;45.194;9.142;2024-01-07T06:33:50;5.28;;;2.30;;
79130;SDS011;72396;45.194;9.142;2024-01-07T06:36:15;5.05;;;2.42;;
79130;SDS011;72396;45.194;9.142;2024-01-07T06:38:41;5.53;;;2.20;;
79130;SDS011;72396;45.194;9.142;2024-01-07T06:41:06;4.68;;;2.00;;
79130;SDS011;72396;45.194;9.142;2024-01-07T06:43:32;3.42;;;1.90;;
79130;SDS011;72396;45.194;9.142;2024-01-07T06:45:57;3.13;;;1.65;;
79130;SDS011;72396;45.194;9.142;2024-01-07T06:48:22;3.33;;;1.40;;
79130;SDS011;72396;45.194;9.142;2024-01-07T06:50:48;3.05;;;1.30;;
79130;SDS011;72396;45.194;9.142;2024-01-07T06:53:13;3.10;;;1.30;;
79130;SDS011;72396;45.194;9.142;2024-01-07T06:55:39;3.30;;;1.30;;
79130;SDS011;72396;45.194;9.142;2024-01-07T06:58:04;2.38;;;1.25;;
79130;SDS011;72396;45.194;9.142;2024-01-07T07:00:29;2.35;;;1.10;;
79130;SDS011;72396;45.194;9.142;2024-01-07T07:02:55;2.15;;;0.95;;
79130;SDS011;72396;45.194;9.142;2024-01-07T07:05:20;2.50;;;1.00;;
79130;SDS011;72396;45.194;9.142;2024-01-07T07:07:45;2.42;;;1.17;;
79130;SDS011;72396;45.194;9.142;2024-01-07T07:10:11;2.75;;;1.10;;
79130;SDS011;72396;45.194;9.142;2024-01-07T07:12:36;2.53;;;0.98;;
79130;SDS011;72396;45.194;9.142;2024-01-07T07:15:02;3.80;;;1.20;;
79130;SDS011;72396;45.194;9.142;2024-01-07T07:17:27;2.75;;;1.38;;
79130;SDS011;72396;45.194;9.142;2024-01-07T07:19:52;2.17;;;1.02;;
79130;SDS011;72396;45.194;9.142;2024-01-07T07:22:18;2.38;;;1.13;;
79130;SDS011;72396;45.194;9.142;2024-01-07T07:24:43;2.22;;;1.08;;
79130;SDS011;72396;45.194;9.142;2024-01-07T07:27:08;2.03;;;1.00;;
79130;SDS011;72396;45.194;9.142;2024-01-07T07:29:34;2.60;;;1.10;;
79130;SDS011;72396;45.194;9.142;2024-01-07T07:31:59;5.03;;;1.40;;
79130;SDS011;72396;45.194;9.142;2024-01-07T07:34:25;3.15;;;1.10;;
79130;SDS011;72396;45.194;9.142;2024-01-07T07:36:50;2.50;;;1.10;;
79130;SDS011;72396;45.194;9.142;2024-01-07T07:39:16;2.40;;;1.20;;
79130;SDS011;72396;45.194;9.142;2024-01-07T07:41:42;1.88;;;1.08;;
79130;SDS011;72396;45.194;9.142;2024-01-07T07:44:07;2.10;;;1.05;;
79130;SDS011;72396;45.194;9.142;2024-01-07T07:46:32;1.85;;;0.93;;
79130;SDS011;72396;45.194;9.142;2024-01-07T07:48:58;2.65;;;1.10;;
79130;SDS011;72396;45.194;9.142;2024-01-07T07:51:23;3.05;;;1.10;;
79130;SDS011;72396;45.194;9.142;2024-01-07T07:53:49;2.83;;;1.23;;
79130;SDS011;72396;45.194;9.142;2024-01-07T07:56:14;2.38;;;1.10;;
79130;SDS011;72396;45.194;9.142;2024-01-07T07:58:39;2.05;;;0.80;;
79130;SDS011;72396;45.194;9.142;2024-01-07T08:01:05;2.50;;;1.13;;
79130;SDS011;72396;45.194;9.142;2024-01-07T08:03:31;2.53;;;1.30;;
79130;SDS011;72396;45.194;9.142;2024-01-07T08:05:57;2.10;;;1.00;;
79130;SDS011;72396;45.194;9.142;2024-01-07T08:08:22;2.40;;;1.08;;
79130;SDS011;72396;45.194;9.142;2024-01-07T08:10:48;2.00;;;1.08;;
79130;SDS011;72396;45.194;9.142;2024-01-07T08:13:13;2.65;;;1.15;;
79130;SDS011;72396;45.194;9.142;2024-01-07T08:15:38;2.60;;;1.05;;
79130;SDS011;72396;45.194;9.142;2024-01-07T08:18:04;2.63;;;1.25;;
79130;SDS011;72396;45.194;9.142;2024-01-07T08:20:30;2.47;;;0.98;;
79130;SDS011;72396;45.194;9.142;2024-01-07T08:22:55;2.47;;;1.10;;
79130;SDS011;72396;45.194;9.142;2024-01-07T08:25:21;2.13;;;1.02;;
79130;SDS011;72396;45.194;9.142;2024-01-07T08:27:46;1.95;;;1.00;;
79130;SDS011;72396;45.194;9.142;2024-01-07T08:30:12;2.30;;;1.10;;
79130;SDS011;72396;45.194;9.142;2024-01-07T08:32:38;2.50;;;1.00;;
79130;SDS011;72396;45.194;9.142;2024-01-07T08:35:04;2.85;;;1.17;;
79130;SDS011;72396;45.194;9.142;2024-01-07T08:37:30;2.25;;;1.10;;
79130;SDS011;72396;45.194;9.142;2024-01-07T08:39:55;3.40;;;1.52;;
79130;SDS011;72396;45.194;9.142;2024-01-07T08:42:21;4.53;;;1.17;;
79130;SDS011;72396;45.194;9.142;2024-01-07T08:44:46;2.83;;;1.27;;
79130;SDS011;72396;45.194;9.142;2024-01-07T08:47:12;2.70;;;1.35;;
79130;SDS011;72396;45.194;9.142;2024-01-07T08:49:38;2.40;;;1.30;;
79130;SDS011;72396;45.194;9.142;2024-01-07T08:52:03;3.17;;;1.40;;
79130;SDS011;72396;45.194;9.142;2024-01-07T08:54:29;4.70;;;1.65;;
79130;SDS011;72396;45.194;9.142;2024-01-07T08:56:55;3.50;;;1.50;;
79130;SDS011;72396;45.194;9.142;2024-01-07T08:59:20;3.53;;;1.80;;
79130;SDS011;72396;45.194;9.142;2024-01-07T09:01:45;3.80;;;1.83;;
79130;SDS011;72396;45.194;9.142;2024-01-07T09:04:11;3.70;;;2.10;;
79130;SDS011;72396;45.194;9.142;2024-01-07T09:06:36;3.95;;;1.80;;
79130;SDS011;72396;45.194;9.142;2024-01-07T09:09:02;3.90;;;2.20;;
79130;SDS011;72396;45.194;9.142;2024-01-07T09:11:31;5.68;;;2.30;;
79130;SDS011;72396;45.194;9.142;2024-01-07T09:13:56;3.90;;;2.35;;
79130;SDS011;72396;45.194;9.142;2024-01-07T09:16:22;4.30;;;2.53;;
79130;SDS011;72396;45.194;9.142;2024-01-07T09:18:47;4.75;;;3.40;;
79130;SDS011;72396;45.194;9.142;2024-01-07T09:21:12;6.15;;;3.25;;
79130;SDS011;72396;45.194;9.142;2024-01-07T09:23:38;4.70;;;2.83;;
79130;SDS011;72396;45.194;9.142;2024-01-07T09:26:03;6.43;;;3.33;;
79130;SDS011;72396;45.194;9.142;2024-01-07T09:28:28;6.63;;;3.45;;
79130;SDS011;72396;45.194;9.142;2024-01-07T09:30:54;6.10;;;3.88;;
79130;SDS011;72396;45.194;9.142;2024-01-07T09:33:19;5.57;;;3.35;;
79130;SDS011;72396;45.194;9.142;2024-01-07T09:35:47;5.95;;;3.42;;
79130;SDS011;72396;45.194;9.142;2024-01-07T09:38:13;7.18;;;5.40;;
79130;SDS011;72396;45.194;9.142;2024-01-07T09:40:38;7.05;;;4.10;;
79130;SDS011;72396;45.194;9.142;2024-01-07T09:43:04;6.70;;;3.90;;
79130;SDS011;72396;45.194;9.142;2024-01-07T09:45:31;7.85;;;4.88;;
79130;SDS011;72396;45.194;9.142;2024-01-07T09:47:56;7.90;;;4.63;;
79130;SDS011;72396;45.194;9.142;2024-01-07T09:50:22;6.75;;;3.95;;
79130;SDS011;72396;45.194;9.142;2024-01-07T09:52:52;7.63;;;4.63;;
79130;SDS011;72396;45.194;9.142;2024-01-07T09:55:26;6.47;;;4.28;;
79130;SDS011;72396;45.194;9.142;2024-01-07T09:57:54;6.85;;;4.35;;
79130;SDS011;72396;45.194;9.142;2024-01-07T10:00:20;10.25;;;4.63;;
79130;SDS011;72396;45.194;9.142;2024-01-07T10:02:45;7.95;;;4.90;;
79130;SDS011;72396;45.194;9.142;2024-01-07T10:05:11;8.95;;;5.13;;
79130;SDS011;72396;45.194;9.142;2024-01-07T10:07:36;8.20;;;5.53;;
79130;SDS011;72396;45.194;9.142;2024-01-07T10:10:14;9.18;;;5.75;;
79130;SDS011;72396;45.194;9.142;2024-01-07T10:12:40;9.88;;;6.20;;
79130;SDS011;72396;45.194;9.142;2024-01-07T10:15:06;10.10;;;6.35;;
79130;SDS011;72396;45.194;9.142;2024-01-07T10:17:32;11.20;;;6.57;;
79130;SDS011;72396;45.194;9.142;2024-01-07T10:19:58;12.00;;;6.65;;
79130;SDS011;72396;45.194;9.142;2024-01-07T10:22:23;8.90;;;6.28;;
79130;SDS011;72396;45.194;9.142;2024-01-07T10:24:50;10.60;;;6.68;;
79130;SDS011;72396;45.194;9.142;2024-01-07T10:27:16;9.95;;;6.25;;
79130;SDS011;72396;45.194;9.142;2024-01-07T10:29:42;11.27;;;6.53;;
79130;SDS011;72396;45.194;9.142;2024-01-07T10:32:07;10.35;;;6.53;;
79130;SDS011;72396;45.194;9.142;2024-01-07T10:34:36;8.77;;;6.05;;
79130;SDS011;72396;45.194;9.142;2024-01-07T10:37:02;9.98;;;6.28;;
79130;SDS011;72396;45.194;9.142;2024-01-07T10:39:29;10.77;;;6.05;;
79130;SDS011;72396;45.194;9.142;2024-01-07T10:41:55;9.30;;;5.75;;
79130;SDS011;72396;45.194;9.142;2024-01-07T10:44:27;8.52;;;6.03;;
79130;SDS011;72396;45.194;9.142;2024-01-07T10:46:54;8.73;;;5.68;;
79130;SDS011;72396;45.194;9.142;2024-01-07T10:49:21;9.63;;;5.72;;
79130;SDS011;72396;45.194;9.142;2024-01-07T10:51:56;10.15;;;6.05;;
79130;SDS011;72396;45.194;9.142;2024-01-07T10:54:24;10.15;;;6.47;;
79130;SDS011;72396;45.194;9.142;2024-01-07T10:56:54;9.75;;;6.25;;
79130;SDS011;72396;45.194;9.142;2024-01-07T10:59:23;11.55;;;6.85;;
79130;SDS011;72396;45.194;9.142;2024-01-07T11:01:50;11.30;;;7.50;;
79130;SDS011;72396;45.194;9.142;2024-01-07T11:07:18;10.20;;;6.85;;
79130;SDS011;72396;45.194;9.142;2024-01-07T11:10:14;9.55;;;6.18;;
79130;SDS011;72396;45.194;9.142;2024-01-07T11:13:02;10.90;;;6.72;;
79130;SDS011;72396;45.194;9.142;2024-01-07T11:18:21;10.20;;;6.97;;
79130;SDS011;72396;45.194;9.142;2024-01-07T11:20:47;9.93;;;6.97;;
79130;SDS011;72396;45.194;9.142;2024-01-07T11:23:29;9.55;;;6.38;;
79130;SDS011;72396;45.194;9.142;2024-01-07T11:25:56;11.48;;;7.65;;
79130;SDS011;72396;45.194;9.142;2024-01-07T11:28:42;10.45;;;6.78;;
79130;SDS011;72396;45.194;9.142;2024-01-07T11:31:18;11.30;;;6.70;;
79130;SDS011;72396;45.194;9.142;2024-01-07T11:33:46;11.27;;;6.85;;
79130;SDS011;72396;45.194;9.142;2024-01-07T11:36:13;10.32;;;7.18;;
79130;SDS011;72396;45.194;9.142;2024-01-07T11:38:57;11.45;;;7.00;;
79130;SDS011;72396;45.194;9.142;2024-01-07T11:41:23;10.13;;;6.97;;
79130;SDS011;72396;45.194;9.142;2024-01-07T11:43:57;12.52;;;7.00;;
79130;SDS011;72396;45.194;9.142;2024-01-07T11:46:27;11.27;;;7.25;;
79130;SDS011;72396;45.194;9.142;2024-01-07T11:48:57;10.02;;;6.30;;
79130;SDS011;72396;45.194;9.142;2024-01-07T11:51:27;11.70;;;7.20;;
79130;SDS011;72396;45.194;9.142;2024-01-07T11:53:53;10.00;;;6.53;;
79130;SDS011;72396;45.194;9.142;2024-01-07T11:56:19;12.00;;;7.45;;
79130;SDS011;72396;45.194;9.142;2024-01-07T11:58:45;9.93;;;6.40;;
79130;SDS011;72396;45.194;9.142;2024-01-07T12:01:11;8.98;;;6.65;;
79130;SDS011;72396;45.194;9.142;2024-01-07T12:03:36;8.95;;;5.88;;
79130;SDS011;72396;45.194;9.142;2024-01-07T12:06:02;9.13;;;6.05;;
79130;SDS011;72396;45.194;9.142;2024-01-07T12:08:28;10.10;;;6.05;;
79130;SDS011;72396;45.194;9.142;2024-01-07T12:10:55;9.73;;;6.22;;
79130;SDS011;72396;45.194;9.142;2024-01-07T12:13:21;9.77;;;5.65;;
79130;SDS011;72396;45.194;9.142;2024-01-07T12:15:47;10.38;;;6.35;;
79130;SDS011;72396;45.194;9.142;2024-01-07T12:18:12;8.57;;;5.32;;
79130;SDS011;72396;45.194;9.142;2024-01-07T12:20:37;9.50;;;5.55;;
79130;SDS011;72396;45.194;9.142;2024-01-07T12:23:06;7.75;;;5.72;;
79130;SDS011;72396;45.194;9.142;2024-01-07T12:25:35;10.45;;;5.18;;
79130;SDS011;72396;45.194;9.142;2024-01-07T12:28:01;8.23;;;5.07;;
79130;SDS011;72396;45.194;9.142;2024-01-07T12:30:27;8.80;;;5.35;;
79130;SDS011;72396;45.194;9.142;2024-01-07T12:32:53;9.55;;;5.47;;
79130;SDS011;72396;45.194;9.142;2024-01-07T12:35:19;8.98;;;5.32;;
79130;SDS011;72396;45.194;9.142;2024-01-07T12:37:44;8.13;;;5.10;;
79130;SDS011;72396;45.194;9.142;2024-01-07T12:40:10;8.25;;;5.85;;
79130;SDS011;72396;45.194;9.142;2024-01-07T12:42:40;9.35;;;5.82;;
79130;SDS011;72396;45.194;9.142;2024-01-07T12:45:13;10.07;;;5.55;;
79130;SDS011;72396;45.194;9.142;2024-01-07T12:47:40;10.07;;;5.30;;
79130;SDS011;72396;45.194;9.142;2024-01-07T12:50:08;7.60;;;4.88;;
79130;SDS011;72396;45.194;9.142;2024-01-07T12:52:38;8.57;;;4.85;;
79130;SDS011;72396;45.194;9.142;2024-01-07T12:55:05;7.93;;;4.93;;
79130;SDS011;72396;45.194;9.142;2024-01-07T12:57:31;7.85;;;5.30;;
79130;SDS011;72396;45.194;9.142;2024-01-07T12:59:57;9.13;;;5.25;;
79130;SDS011;72396;45.194;9.142;2024-01-07T13:02:22;7.53;;;4.57;;
79130;SDS011;72396;45.194;9.142;2024-01-07T13:04:48;7.53;;;4.35;;
79130;SDS011;72396;45.194;9.142;2024-01-07T13:07:14;8.13;;;4.70;;
79130;SDS011;72396;45.194;9.142;2024-01-07T13:09:39;8.40;;;4.78;;
79130;SDS011;72396;45.194;9.142;2024-01-07T13:12:05;7.45;;;4.78;;
79130;SDS011;72396;45.194;9.142;2024-01-07T13:14:30;8.63;;;5.05;;
79130;SDS011;72396;45.194;9.142;2024-01-07T13:16:55;8.35;;;4.70;;
79130;SDS011;72396;45.194;9.142;2024-01-07T13:19:21;9.18;;;4.82;;
79130;SDS011;72396;45.194;9.142;2024-01-07T13:21:46;7.70;;;4.57;;
79130;SDS011;72396;45.194;9.142;2024-01-07T13:24:12;7.90;;;4.78;;
79130;SDS011;72396;45.194;9.142;2024-01-07T13:26:37;6.45;;;4.13;;
79130;SDS011;72396;45.194;9.142;2024-01-07T13:29:03;7.80;;;5.00;;
79130;SDS011;72396;45.194;9.142;2024-01-07T13:31:28;8.65;;;5.38;;
79130;SDS011;72396;45.194;9.142;2024-01-07T13:33:54;6.93;;;4.57;;
79130;SDS011;72396;45.194;9.142;2024-01-07T13:36:19;9.60;;;5.40;;
79130;SDS011;72396;45.194;9.142;2024-01-07T13:38:45;6.40;;;4.53;;
79130;SDS011;72396;45.194;9.142;2024-01-07T13:41:14;7.15;;;4.57;;
79130;SDS011;72396;45.194;9.142;2024-01-07T13:43:43;7.82;;;4.53;;
79130;SDS011;72396;45.194;9.142;2024-01-07T13:46:09;9.32;;;4.97;;
79130;SDS011;72396;45.194;9.142;2024-01-07T13:48:34;6.50;;;4.07;;
79130;SDS011;72396;45.194;9.142;2024-01-07T13:51:00;6.55;;;4.28;;
79130;SDS011;72396;45.194;9.142;2024-01-07T13:53:25;7.25;;;4.40;;
79130;SDS011;72396;45.194;9.142;2024-01-07T13:55:51;8.18;;;4.35;;
79130;SDS011;72396;45.194;9.142;2024-01-07T13:58:16;7.25;;;4.45;;
79130;SDS011;72396;45.194;9.142;2024-01-07T14:00:41;6.95;;;4.18;;
79130;SDS011;72396;45.194;9.142;2024-01-07T14:03:07;6.97;;;3.92;;
79130;SDS011;72396;45.194;9.142;2024-01-07T14:05:32;5.88;;;4.13;;
79130;SDS011;72396;45.194;9.142;2024-01-07T14:07:57;7.72;;;4.35;;
79130;SDS011;72396;45.194;9.142;2024-01-07T14:10:23;7.53;;;3.95;;
79130;SDS011;72396;45.194;9.142;2024-01-07T14:12:48;7.65;;;3.95;;
79130;SDS011;72396;45.194;9.142;2024-01-07T14:15:13;6.43;;;4.20;;
79130;SDS011;72396;45.194;9.142;2024-01-07T14:17:39;6.28;;;4.03;;
79130;SDS011;72396;45.194;9.142;2024-01-07T14:20:05;6.22;;;4.32;;
79130;SDS011;72396;45.194;9.142;2024-01-07T14:22:32;5.97;;;3.70;;
79130;SDS011;72396;45.194;9.142;2024-01-07T14:24:58;7.30;;;4.30;;
79130;SDS011;72396;45.194;9.142;2024-01-07T14:27:23;6.60;;;3.60;;
79130;SDS011;72396;45.194;9.142;2024-01-07T14:29:48;6.60;;;3.50;;
79130;SDS011;72396;45.194;9.142;2024-01-07T14:32:14;7.22;;;4.13;;
79130;SDS011;72396;45.194;9.142;2024-01-07T14:34:40;7.72;;;3.40;;
79130;SDS011;72396;45.194;9.142;2024-01-07T14:37:09;5.65;;;2.88;;
79130;SDS011;72396;45.194;9.142;2024-01-07T14:39:35;5.65;;;3.40;;
79130;SDS011;72396;45.194;9.142;2024-01-07T14:42:03;6.05;;;3.05;;